createdAt,value
2018-08-28T00:00:20.349Z,17.15
2018-08-28T00:01:20.410Z,17.17
2018-08-28T00:02:20.314Z,17.18
2018-08-28T00:03:20.192Z,17.20
2018-08-28T00:04:20.033Z,17.33
2018-08-28T00:07:02.026Z,17.28
2018-08-28T00:08:01.994Z,17.30
2018-08-28T00:09:01.963Z,17.42
2018-08-28T00:10:01.797Z,17.35
2018-08-28T00:11:01.700Z,17.35
2018-08-28T00:12:01.649Z,17.38
2018-08-28T00:13:01.522Z,17.42
2018-08-28T00:15:43.498Z,17.38
2018-08-28T00:16:43.526Z,17.42
2018-08-28T00:17:43.360Z,17.43
2018-08-28T00:18:43.324Z,17.43
2018-08-28T00:19:43.190Z,17.46
2018-08-28T00:20:43.150Z,17.38
2018-08-28T00:21:43.030Z,17.42
2018-08-28T00:22:43.101Z,17.46
2018-08-28T00:23:42.866Z,17.42
2018-08-28T00:24:42.847Z,17.42
2018-08-28T00:25:42.700Z,17.36
2018-08-28T00:26:42.669Z,17.38
2018-08-28T00:27:42.555Z,17.36
2018-08-28T00:28:42.588Z,17.33
2018-08-28T00:29:42.385Z,17.43
2018-08-28T00:30:42.393Z,17.40
2018-08-28T00:31:42.227Z,17.33
2018-08-28T00:32:42.333Z,17.33
2018-08-28T00:33:42.064Z,17.35
2018-08-28T00:34:42.094Z,17.36
2018-08-28T00:35:41.904Z,17.38
2018-08-28T00:36:41.912Z,17.30
2018-08-28T00:37:41.778Z,17.38
2018-08-28T00:38:41.756Z,17.36
2018-08-28T00:39:41.586Z,17.42
2018-08-28T00:40:41.621Z,17.39
2018-08-28T00:41:41.427Z,17.39
2018-08-28T00:42:41.435Z,17.45
2018-08-28T00:43:41.288Z,17.47
2018-08-28T00:46:23.505Z,17.40
2018-08-28T00:47:23.544Z,17.36
2018-08-28T00:48:23.462Z,17.35
2018-08-28T00:49:23.385Z,17.42
2018-08-28T00:50:23.193Z,17.32
2018-08-28T00:51:23.170Z,17.42
2018-08-28T00:52:23.099Z,17.35
2018-08-28T00:55:30.531Z,17.40
2018-08-28T00:56:30.478Z,17.42
2018-08-28T00:57:30.372Z,17.43
2018-08-28T00:58:30.410Z,17.39
2018-08-28T00:59:30.210Z,17.45
2018-08-28T01:00:30.196Z,17.43
2018-08-28T01:01:30.035Z,17.46
2018-08-28T01:02:30.112Z,17.57
2018-08-28T01:03:29.865Z,17.60
2018-08-28T01:04:29.967Z,17.58
2018-08-28T01:05:29.732Z,17.66
2018-08-28T01:06:29.719Z,17.63
2018-08-28T01:07:29.565Z,17.60
2018-08-28T01:08:29.552Z,17.60
2018-08-28T01:09:29.402Z,17.58
2018-08-28T01:10:29.475Z,17.63
2018-08-28T01:11:29.241Z,17.54
2018-08-28T01:12:29.262Z,17.57
2018-08-28T01:13:29.084Z,17.46
2018-08-28T01:14:29.058Z,17.51
2018-08-28T01:15:28.971Z,17.49
2018-08-28T01:16:28.961Z,17.54
2018-08-28T01:17:28.764Z,17.43
2018-08-28T01:18:28.804Z,17.46
2018-08-28T01:19:28.618Z,17.47
2018-08-28T01:20:28.624Z,17.47
2018-08-28T01:21:28.466Z,17.36
2018-08-28T01:22:28.406Z,17.40
2018-08-28T01:23:28.290Z,17.40
2018-08-28T01:24:28.309Z,17.38
2018-08-28T01:25:28.166Z,17.43
2018-08-28T01:26:28.106Z,17.30
2018-08-28T01:27:27.974Z,17.30
2018-08-28T01:28:27.924Z,17.30
2018-08-28T01:29:27.804Z,17.22
2018-08-28T01:30:27.874Z,17.17
2018-08-28T01:31:27.673Z,17.20
2018-08-28T01:32:27.675Z,17.21
2018-08-28T01:33:27.524Z,17.24
2018-08-28T01:34:27.445Z,17.18
2018-08-28T01:35:27.362Z,17.32
2018-08-28T01:36:27.357Z,17.22
2018-08-28T01:37:27.167Z,17.30
2018-08-28T01:38:27.197Z,17.21
2018-08-28T01:39:27.009Z,17.21
2018-08-28T01:40:26.980Z,17.14
2018-08-28T01:41:26.960Z,17.20
2018-08-28T01:42:26.882Z,17.21
2018-08-28T01:43:26.714Z,17.14
2018-08-28T01:44:26.698Z,17.18
2018-08-28T01:45:26.540Z,17.17
2018-08-28T01:46:26.536Z,17.06
2018-08-28T01:47:26.375Z,17.12
2018-08-28T01:48:26.405Z,17.09
2018-08-28T01:49:26.233Z,17.10
2018-08-28T01:50:26.216Z,17.07
2018-08-28T01:51:26.073Z,17.00
2018-08-28T01:52:26.030Z,17.03
2018-08-28T01:53:25.897Z,16.95
2018-08-28T01:54:25.938Z,17.02
2018-08-28T01:55:25.754Z,17.00
2018-08-28T01:56:25.791Z,17.00
2018-08-28T01:57:25.623Z,16.99
2018-08-28T01:58:25.564Z,17.00
2018-08-28T01:59:25.427Z,17.00
2018-08-28T02:00:25.394Z,16.99
2018-08-28T02:01:25.264Z,16.99
2018-08-28T02:02:25.316Z,17.02
2018-08-28T02:03:25.101Z,16.99
2018-08-28T02:04:25.085Z,16.96
2018-08-28T02:05:24.956Z,16.92
2018-08-28T02:06:24.913Z,16.91
2018-08-28T02:07:24.799Z,16.85
2018-08-28T02:08:24.809Z,16.91
2018-08-28T02:09:24.620Z,16.87
2018-08-28T02:10:24.621Z,16.96
2018-08-28T02:11:24.489Z,16.85
2018-08-28T02:12:24.453Z,16.87
2018-08-28T02:13:24.309Z,16.92
2018-08-28T02:14:24.442Z,16.87
2018-08-28T02:15:24.141Z,16.88
2018-08-28T02:16:24.140Z,16.92
2018-08-28T02:17:24.049Z,16.87
2018-08-28T02:20:06.047Z,16.87
2018-08-28T02:21:06.155Z,16.92
2018-08-28T02:22:05.896Z,16.87
2018-08-28T02:23:05.885Z,16.81
2018-08-28T02:24:05.715Z,16.84
2018-08-28T02:26:47.540Z,16.81
2018-08-28T02:27:47.597Z,16.67
2018-08-28T02:28:47.383Z,16.78
2018-08-28T02:29:47.367Z,16.78
2018-08-28T02:30:47.216Z,16.80
2018-08-28T02:31:47.177Z,16.73
2018-08-28T02:32:47.063Z,16.78
2018-08-28T02:33:47.325Z,16.73
2018-08-28T02:34:46.894Z,16.72
2018-08-28T02:35:46.897Z,16.69
2018-08-28T02:36:46.759Z,16.70
2018-08-28T02:37:46.704Z,16.55
2018-08-28T02:38:46.663Z,16.55
2018-08-28T02:39:46.623Z,16.60
2018-08-28T02:40:46.415Z,16.52
2018-08-28T02:41:46.424Z,16.59
2018-08-28T02:42:46.265Z,16.55
2018-08-28T02:43:46.244Z,16.52
2018-08-28T02:44:46.266Z,16.47
2018-08-28T02:45:46.139Z,16.44
2018-08-28T02:46:45.943Z,16.41
2018-08-28T02:47:45.993Z,16.41
2018-08-28T02:48:45.792Z,16.42
2018-08-28T02:49:46.824Z,16.42
2018-08-28T02:50:45.629Z,16.37
2018-08-28T02:51:45.671Z,16.33
2018-08-28T02:52:45.465Z,16.37
2018-08-28T02:53:45.492Z,16.33
2018-08-28T02:54:45.321Z,16.26
2018-08-28T02:55:45.304Z,16.23
2018-08-28T02:56:45.151Z,16.16
2018-08-28T02:57:45.089Z,16.18
2018-08-28T02:58:44.988Z,16.16
2018-08-28T02:59:45.047Z,16.08
2018-08-28T03:00:44.826Z,16.08
2018-08-28T03:01:44.810Z,16.06
2018-08-28T03:02:44.681Z,16.11
2018-08-28T03:03:44.628Z,16.03
2018-08-28T03:04:44.573Z,16.18
2018-08-28T03:05:44.550Z,16.14
2018-08-28T03:06:44.349Z,16.06
2018-08-28T03:07:44.395Z,16.13
2018-08-28T03:08:44.243Z,16.06
2018-08-28T03:09:44.178Z,16.06
2018-08-28T03:10:44.039Z,15.99
2018-08-28T03:11:44.199Z,15.92
2018-08-28T03:12:43.872Z,16.06
2018-08-28T03:13:43.867Z,16.03
2018-08-28T03:14:43.740Z,15.92
2018-08-28T03:17:25.550Z,16.11
2018-08-28T03:18:25.573Z,16.03
2018-08-28T03:19:25.390Z,15.85
2018-08-28T03:20:25.412Z,16.10
2018-08-28T03:21:25.233Z,16.01
2018-08-28T03:22:25.194Z,15.99
2018-08-28T03:23:25.086Z,15.95
2018-08-28T03:24:25.109Z,15.99
2018-08-28T03:25:24.994Z,15.96
2018-08-28T03:26:24.918Z,15.77
2018-08-28T03:27:24.756Z,15.81
2018-08-28T03:28:24.746Z,15.80
2018-08-28T03:29:24.591Z,15.84
2018-08-28T03:30:24.580Z,15.81
2018-08-28T03:31:24.438Z,15.84
2018-08-28T03:32:24.435Z,15.85
2018-08-28T03:33:24.264Z,15.80
2018-08-28T03:34:24.246Z,15.78
2018-08-28T03:35:24.134Z,15.81
2018-08-28T03:36:24.056Z,15.78
2018-08-28T03:37:23.962Z,15.74
2018-08-28T03:38:23.976Z,15.66
2018-08-28T03:39:23.787Z,15.62
2018-08-28T03:40:23.811Z,15.66
2018-08-28T03:41:23.713Z,15.58
2018-08-28T03:42:23.600Z,15.58
2018-08-28T03:43:23.470Z,15.48
2018-08-28T03:44:23.506Z,15.49
2018-08-28T03:45:23.316Z,15.34
2018-08-28T03:46:23.327Z,15.40
2018-08-28T03:47:23.180Z,15.40
2018-08-28T03:48:23.124Z,15.31
2018-08-28T03:49:22.980Z,15.33
2018-08-28T03:50:23.088Z,15.35
2018-08-28T03:51:22.848Z,15.31
2018-08-28T03:52:22.829Z,15.30
2018-08-28T03:53:22.666Z,15.35
2018-08-28T03:54:22.646Z,15.31
2018-08-28T03:55:22.532Z,15.15
2018-08-28T03:56:22.580Z,15.28
2018-08-28T03:57:22.340Z,15.20
2018-08-28T03:58:22.373Z,15.18
2018-08-28T03:59:22.190Z,15.25
2018-08-28T04:00:22.165Z,15.35
2018-08-28T04:01:22.031Z,15.35
2018-08-28T04:02:22.020Z,15.35
2018-08-28T04:03:21.862Z,15.40
2018-08-28T04:04:21.894Z,15.37
2018-08-28T04:05:21.704Z,15.41
2018-08-28T04:06:21.740Z,15.34
2018-08-28T04:07:21.637Z,15.35
2018-08-28T04:08:21.541Z,15.37
2018-08-28T04:09:21.389Z,15.31
2018-08-28T04:10:21.420Z,15.46
2018-08-28T04:11:21.224Z,15.37
2018-08-28T04:12:21.260Z,15.40
2018-08-28T04:13:21.210Z,15.37
2018-08-28T04:14:21.045Z,15.40
2018-08-28T04:15:20.898Z,15.34
2018-08-28T04:16:21.051Z,15.28
2018-08-28T04:17:20.783Z,15.27
2018-08-28T04:18:20.793Z,15.11
2018-08-28T04:19:20.581Z,15.04
2018-08-28T04:22:02.566Z,15.05
2018-08-28T04:23:02.600Z,15.13
2018-08-28T04:24:02.428Z,15.04
2018-08-28T04:25:02.372Z,15.03
2018-08-28T04:26:02.246Z,15.01
2018-08-28T04:27:02.289Z,14.95
2018-08-28T04:28:02.104Z,14.90
2018-08-28T04:29:02.100Z,14.82
2018-08-28T04:30:01.924Z,14.82
2018-08-28T04:31:02.032Z,14.93
2018-08-28T04:32:01.767Z,14.79
2018-08-28T04:33:01.744Z,14.90
2018-08-28T04:34:01.602Z,14.78
2018-08-28T04:35:01.610Z,14.79
2018-08-28T04:36:01.445Z,14.82
2018-08-28T04:37:01.534Z,14.94
2018-08-28T04:38:01.323Z,14.91
2018-08-28T04:39:01.227Z,14.95
2018-08-28T04:40:01.149Z,14.94
2018-08-28T04:41:01.144Z,14.86
2018-08-28T04:42:01.061Z,14.80
2018-08-28T04:43:00.989Z,14.79
2018-08-28T04:44:00.821Z,14.74
2018-08-28T04:45:00.755Z,14.67
2018-08-28T04:46:00.659Z,14.79
2018-08-28T04:47:00.664Z,14.66
2018-08-28T04:48:00.479Z,14.72
2018-08-28T04:49:00.583Z,14.75
2018-08-28T04:50:00.363Z,14.80
2018-08-28T04:51:00.289Z,14.71
2018-08-28T04:52:00.163Z,14.66
2018-08-28T04:53:00.204Z,14.71
2018-08-28T04:54:00.014Z,14.64
2018-08-28T04:56:42.091Z,14.66
2018-08-28T04:57:42.102Z,14.66
2018-08-28T04:58:41.926Z,14.71
2018-08-28T04:59:41.914Z,14.75
2018-08-28T05:00:41.846Z,14.69
2018-08-28T05:01:41.723Z,14.69
2018-08-28T05:02:41.601Z,14.64
2018-08-28T05:03:41.657Z,14.71
2018-08-28T05:04:41.432Z,14.64
2018-08-28T05:05:41.439Z,14.71
2018-08-28T05:06:41.267Z,14.67
2018-08-28T05:07:41.250Z,14.66
2018-08-28T05:08:41.123Z,14.64
2018-08-28T05:09:41.091Z,14.64
2018-08-28T05:10:40.952Z,14.63
2018-08-28T05:11:40.987Z,14.61
2018-08-28T05:12:40.790Z,14.53
2018-08-28T05:13:40.777Z,14.59
2018-08-28T05:14:40.639Z,14.45
2018-08-28T05:15:40.616Z,14.52
2018-08-28T05:16:40.465Z,14.46
2018-08-28T05:17:40.513Z,14.48
2018-08-28T05:18:40.312Z,14.52
2018-08-28T05:21:22.611Z,14.49
2018-08-28T05:22:22.506Z,14.49
2018-08-28T05:23:22.414Z,14.53
2018-08-28T05:24:22.389Z,14.52
2018-08-28T05:25:22.254Z,14.64
2018-08-28T05:26:22.193Z,14.69
2018-08-28T05:27:22.096Z,14.64
2018-08-28T05:28:22.039Z,14.67
2018-08-28T05:29:21.959Z,14.64
2018-08-28T05:30:22.927Z,14.74
2018-08-28T05:31:21.775Z,14.66
2018-08-28T05:32:21.707Z,14.72
2018-08-28T05:33:21.613Z,14.82
2018-08-28T05:34:21.551Z,14.91
2018-08-28T05:35:21.474Z,14.91
2018-08-28T05:36:21.377Z,14.90
2018-08-28T05:37:21.305Z,14.93
2018-08-28T05:38:21.236Z,14.90
2018-08-28T05:39:21.135Z,15.00
2018-08-28T05:40:21.074Z,15.12
2018-08-28T05:41:21.080Z,14.95
2018-08-28T05:42:20.905Z,14.98
2018-08-28T05:43:20.812Z,15.00
2018-08-28T05:44:22.875Z,15.00
2018-08-28T05:45:20.655Z,14.93
2018-08-28T05:46:21.594Z,14.91
2018-08-28T05:47:20.493Z,14.95
2018-08-28T05:48:21.436Z,15.00
2018-08-28T05:49:20.328Z,15.00
2018-08-28T05:50:20.260Z,15.15
2018-08-28T05:51:20.193Z,15.19
2018-08-28T05:54:02.110Z,15.28
2018-08-28T05:55:02.005Z,15.27
2018-08-28T05:56:01.965Z,15.16
2018-08-28T05:57:01.873Z,15.20
2018-08-28T05:58:01.781Z,15.15
2018-08-28T05:59:01.695Z,15.11
2018-08-28T06:00:01.657Z,15.19
2018-08-28T06:01:01.606Z,15.22
2018-08-28T06:02:01.448Z,15.15
2018-08-28T06:03:01.565Z,15.25
2018-08-28T06:04:01.279Z,15.20
2018-08-28T06:05:01.323Z,15.33
2018-08-28T06:06:01.138Z,15.40
2018-08-28T06:07:01.100Z,15.40
2018-08-28T06:08:01.070Z,15.44
2018-08-28T06:09:01.042Z,15.49
2018-08-28T06:10:00.806Z,15.52
2018-08-28T06:11:00.905Z,15.56
2018-08-28T06:12:00.648Z,15.62
2018-08-28T06:13:00.623Z,15.59
2018-08-28T06:14:00.491Z,15.66
2018-08-28T06:16:42.624Z,15.70
2018-08-28T06:17:42.646Z,15.68
2018-08-28T06:18:42.438Z,15.76
2018-08-28T06:21:24.607Z,16.33
2018-08-28T06:22:24.572Z,16.95
2018-08-28T06:23:24.445Z,17.46
2018-08-28T06:24:24.462Z,17.83
2018-08-28T06:25:24.327Z,18.28
2018-08-28T06:26:24.285Z,18.50
2018-08-28T06:27:24.132Z,18.96
2018-08-28T06:28:24.067Z,19.31
2018-08-28T06:29:23.951Z,19.61
2018-08-28T06:30:23.987Z,20.08
2018-08-28T06:31:23.807Z,20.15
2018-08-28T06:32:23.822Z,20.44
2018-08-28T06:33:23.760Z,20.71
2018-08-28T06:34:23.603Z,20.57
2018-08-28T06:35:23.491Z,20.33
2018-08-28T06:36:23.643Z,20.69
2018-08-28T06:37:23.380Z,20.98
2018-08-28T06:38:23.324Z,20.64
2018-08-28T06:39:23.164Z,20.69
2018-08-28T06:40:23.145Z,21.08
2018-08-28T06:41:23.026Z,21.15
2018-08-28T06:42:24.003Z,20.87
2018-08-28T06:43:22.886Z,20.31
2018-08-28T06:46:05.112Z,21.48
2018-08-28T06:47:05.036Z,21.82
2018-08-28T06:48:04.961Z,21.66
2018-08-28T06:49:04.993Z,21.94
2018-08-28T06:50:04.787Z,22.35
2018-08-28T06:51:04.723Z,22.57
2018-08-28T06:52:04.631Z,22.39
2018-08-28T06:53:04.590Z,22.72
2018-08-28T06:54:04.474Z,23.09
2018-08-28T06:56:46.635Z,23.04
2018-08-28T06:57:46.552Z,22.76
2018-08-28T06:58:46.484Z,23.04
2018-08-28T07:01:28.612Z,23.19
2018-08-28T07:02:28.564Z,23.60
2018-08-28T07:03:28.482Z,23.64
2018-08-28T07:04:28.386Z,23.68
2018-08-28T07:05:28.315Z,23.29
2018-08-28T07:06:28.241Z,23.81
2018-08-28T07:07:28.160Z,23.57
2018-08-28T07:08:28.111Z,23.26
2018-08-28T07:09:27.996Z,23.59
2018-08-28T07:10:27.933Z,23.89
2018-08-28T07:11:27.848Z,24.15
2018-08-28T07:14:10.155Z,24.59
2018-08-28T07:15:10.044Z,24.66
2018-08-28T07:16:09.955Z,24.39
2018-08-28T07:17:09.907Z,24.52
2018-08-28T07:18:09.835Z,24.59
2018-08-28T07:19:09.736Z,24.86
2018-08-28T07:20:09.686Z,24.70
2018-08-28T07:21:09.618Z,24.51
2018-08-28T07:22:09.582Z,24.06
2018-08-28T07:23:09.458Z,23.62
2018-08-28T07:24:09.363Z,23.63
2018-08-28T07:25:09.327Z,23.78
2018-08-28T07:26:09.273Z,24.08
2018-08-28T07:27:09.146Z,24.37
2018-08-28T07:28:09.055Z,24.27
2018-08-28T07:29:08.991Z,24.56
2018-08-28T07:30:08.926Z,24.80
2018-08-28T07:31:08.972Z,24.98
2018-08-28T07:32:08.764Z,25.54
2018-08-28T07:36:15.165Z,25.41
2018-08-28T07:37:15.229Z,25.48
2018-08-28T07:38:14.977Z,25.36
2018-08-28T07:39:15.576Z,25.23
2018-08-28T07:40:14.834Z,25.16
2018-08-28T07:41:15.262Z,25.17
2018-08-28T07:42:14.709Z,25.54
2018-08-28T07:43:14.657Z,25.74
2018-08-28T07:44:14.546Z,25.76
2018-08-28T07:46:56.701Z,25.91
2018-08-28T07:47:56.645Z,25.89
2018-08-28T07:48:56.487Z,25.60
2018-08-28T07:49:56.414Z,25.57
2018-08-28T07:50:56.341Z,25.72
2018-08-28T07:51:56.296Z,25.26
2018-08-28T07:52:56.187Z,25.05
2018-08-28T07:53:56.227Z,24.99
2018-08-28T07:54:56.055Z,24.93
2018-08-28T07:55:56.805Z,25.09
2018-08-28T07:56:55.988Z,24.84
2018-08-28T07:57:55.912Z,25.05
2018-08-28T07:58:55.765Z,25.19
2018-08-28T07:59:55.827Z,25.39
2018-08-28T08:00:55.614Z,25.39
2018-08-28T08:01:55.663Z,25.59
2018-08-28T08:02:55.646Z,25.39
2018-08-28T08:03:55.429Z,25.75
2018-08-28T08:04:55.329Z,26.23
2018-08-28T08:05:55.418Z,26.28
2018-08-28T08:06:55.213Z,25.97
2018-08-28T08:07:55.193Z,26.21
2018-08-28T08:08:55.035Z,25.96
2018-08-28T08:11:37.142Z,26.09
2018-08-28T08:12:37.299Z,26.56
2018-08-28T08:13:37.015Z,26.28
2018-08-28T08:14:36.934Z,25.89
2018-08-28T08:15:36.937Z,26.27
2018-08-28T08:16:36.808Z,26.11
2018-08-28T08:17:36.701Z,26.17
2018-08-28T08:18:36.644Z,26.84
2018-08-28T08:19:36.555Z,26.79
2018-08-28T08:20:36.596Z,26.49
2018-08-28T08:21:36.415Z,26.73
2018-08-28T08:22:36.406Z,26.28
2018-08-28T08:23:36.317Z,26.31
2018-08-28T08:24:36.317Z,26.51
2018-08-28T08:25:36.173Z,26.56
2018-08-28T08:26:36.122Z,26.88
2018-08-28T08:27:35.991Z,27.01
2018-08-28T08:28:36.036Z,27.01
2018-08-28T08:29:35.963Z,27.24
2018-08-28T08:32:18.142Z,25.27
2018-08-28T08:33:18.146Z,25.90
2018-08-28T08:34:18.078Z,26.39
2018-08-28T08:35:18.196Z,26.50
2018-08-28T08:36:17.861Z,25.85
2018-08-28T08:37:17.865Z,24.97
2018-08-28T08:38:17.710Z,25.20
2018-08-28T08:39:17.709Z,25.93
2018-08-28T08:40:17.585Z,26.13
2018-08-28T08:41:17.581Z,26.32
2018-08-28T08:42:17.444Z,26.87
2018-08-28T08:43:17.396Z,27.05
2018-08-28T08:44:17.309Z,26.78
2018-08-28T08:45:17.304Z,26.86
2018-08-28T08:46:17.148Z,27.58
2018-08-28T08:47:17.101Z,28.05
2018-08-28T08:48:17.020Z,27.33
2018-08-28T08:49:17.084Z,26.79
2018-08-28T08:50:16.898Z,27.02
2018-08-28T08:51:17.277Z,26.84
2018-08-28T08:52:16.727Z,27.20
2018-08-28T08:53:16.664Z,27.66
2018-08-28T08:54:16.577Z,28.33
2018-08-28T09:00:39.905Z,27.01
2018-08-28T09:01:39.538Z,26.86
2018-08-28T09:02:39.551Z,27.43
2018-08-28T09:03:39.530Z,27.12
2018-08-28T09:04:39.453Z,26.68
2018-08-28T09:05:39.271Z,25.27
2018-08-28T09:06:39.280Z,24.84
2018-08-28T09:07:39.124Z,24.64
2018-08-28T09:08:39.165Z,24.84
2018-08-28T09:09:39.046Z,25.48
2018-08-28T09:10:39.955Z,26.12
2018-08-28T09:11:38.851Z,26.98
2018-08-28T09:12:38.953Z,26.83
2018-08-28T09:13:38.707Z,26.04
2018-08-28T09:14:38.635Z,25.93
2018-08-28T09:15:39.699Z,25.54
2018-08-28T09:16:38.608Z,25.53
2018-08-28T09:17:38.426Z,25.45
2018-08-28T09:18:38.417Z,25.05
2018-08-28T09:19:38.287Z,24.61
2018-08-28T09:20:38.392Z,23.89
2018-08-28T09:21:38.169Z,23.62
2018-08-28T09:22:38.219Z,23.39
2018-08-28T09:23:38.001Z,22.70
2018-08-28T09:24:37.961Z,22.45
2018-08-28T09:25:39.204Z,22.48
2018-08-28T09:26:37.860Z,22.57
2018-08-28T09:27:37.710Z,23.52
2018-08-28T09:28:37.775Z,23.54
2018-08-28T09:29:37.568Z,23.07
2018-08-28T09:30:37.583Z,22.84
2018-08-28T09:31:37.556Z,22.67
2018-08-28T09:32:37.385Z,22.76
2018-08-28T09:33:37.302Z,22.88
2018-08-28T09:36:19.293Z,23.16
2018-08-28T09:37:19.245Z,23.57
2018-08-28T09:38:19.069Z,24.80
2018-08-28T09:39:18.999Z,25.72
2018-08-28T09:40:18.915Z,26.11
2018-08-28T09:41:18.937Z,26.38
2018-08-28T09:42:18.935Z,26.36
2018-08-28T09:43:18.732Z,26.69
2018-08-28T09:44:19.702Z,26.76
2018-08-28T09:47:01.699Z,28.01
2018-08-28T09:48:00.779Z,28.23
2018-08-28T09:49:00.544Z,28.23
2018-08-28T09:50:00.541Z,28.20
2018-08-28T09:51:00.469Z,28.36
2018-08-28T09:52:00.365Z,28.42
2018-08-28T09:53:00.248Z,27.72
2018-08-28T09:54:00.295Z,26.42
2018-08-28T09:55:00.121Z,25.97
2018-08-28T09:56:00.182Z,26.65
2018-08-28T09:57:00.015Z,26.44
2018-08-28T09:57:59.980Z,25.91
2018-08-28T09:58:59.859Z,26.20
2018-08-28T09:59:59.881Z,26.50
2018-08-28T10:00:59.682Z,25.35
2018-08-28T10:03:41.711Z,24.14
2018-08-28T10:04:41.727Z,23.71
2018-08-28T10:05:41.539Z,23.64
2018-08-28T10:06:41.612Z,23.64
2018-08-28T10:07:41.408Z,23.59
2018-08-28T10:08:41.430Z,23.39
2018-08-28T10:09:41.286Z,23.50
2018-08-28T10:32:03.667Z,23.60
2018-08-28T10:33:03.626Z,23.75
2018-08-28T10:34:03.526Z,23.90
2018-08-28T10:35:03.510Z,23.75
2018-08-28T10:36:03.343Z,23.68
2018-08-28T10:37:03.305Z,23.62
2018-08-28T10:38:03.251Z,23.81
2018-08-28T10:39:03.274Z,23.72
2018-08-28T10:40:03.094Z,23.53
2018-08-28T10:41:03.020Z,23.50
2018-08-28T10:42:02.916Z,23.49
2018-08-28T10:43:02.964Z,23.71
2018-08-28T10:44:02.821Z,23.81
2018-08-28T10:45:02.742Z,24.02
2018-08-28T10:46:02.789Z,24.05
2018-08-28T10:47:02.650Z,24.23
2018-08-28T10:48:02.456Z,24.29
2018-08-28T10:49:02.498Z,24.06
2018-08-28T10:50:02.345Z,24.06
2018-08-28T10:51:02.267Z,23.75
2018-08-28T10:52:02.185Z,23.78
2018-08-28T10:54:44.234Z,23.77
2018-08-28T10:55:44.215Z,23.63
2018-08-28T10:56:44.049Z,23.77
2018-08-28T10:57:44.096Z,23.35
2018-08-28T10:58:43.937Z,23.41
2018-08-28T10:59:43.940Z,23.35
2018-08-28T11:00:43.788Z,23.49
2018-08-28T11:01:43.947Z,23.53
2018-08-28T11:02:43.633Z,23.50
2018-08-28T11:03:43.617Z,24.30
2018-08-28T11:04:43.554Z,24.64
2018-08-28T11:05:43.469Z,24.46
2018-08-28T11:06:43.321Z,24.06
2018-08-28T11:07:43.356Z,24.08
2018-08-28T11:08:43.392Z,24.21
2018-08-28T11:09:43.149Z,24.36
2018-08-28T11:10:43.041Z,24.29
2018-08-28T11:11:43.076Z,24.36
2018-08-28T11:12:42.886Z,24.15
2018-08-28T11:13:42.867Z,23.96
2018-08-28T11:14:42.744Z,23.59
2018-08-28T11:15:42.727Z,23.57
2018-08-28T11:16:42.600Z,23.53
2018-08-28T11:19:24.719Z,23.35
2018-08-28T11:22:06.769Z,23.52
2018-08-28T11:23:06.819Z,23.99
2018-08-28T11:24:06.581Z,25.34
2018-08-28T11:25:06.605Z,26.42
2018-08-28T11:26:06.440Z,27.34
2018-08-28T11:27:06.397Z,27.86
2018-08-28T11:28:06.276Z,27.81
2018-08-28T11:29:06.321Z,27.65
2018-08-28T11:30:06.127Z,27.90
2018-08-28T11:31:06.209Z,27.87
2018-08-28T11:32:05.984Z,27.72
2018-08-28T11:33:06.042Z,27.31
2018-08-28T11:34:05.840Z,27.27
2018-08-28T11:35:05.828Z,27.39
2018-08-28T11:36:05.697Z,27.90
2018-08-28T11:37:05.649Z,28.13
2018-08-28T11:38:05.586Z,27.18
2018-08-28T11:39:05.556Z,27.03
2018-08-28T11:40:05.409Z,26.86
2018-08-28T11:41:05.494Z,26.59
2018-08-28T11:42:05.277Z,25.83
2018-08-28T11:43:05.341Z,25.48
2018-08-28T11:44:05.174Z,25.31
2018-08-28T11:45:05.105Z,25.42
2018-08-28T11:46:05.454Z,25.72
2018-08-28T11:47:05.449Z,26.87
2018-08-28T11:48:05.752Z,26.27
2018-08-28T11:49:04.798Z,25.64
2018-08-28T11:50:04.691Z,25.30
2018-08-28T11:51:04.720Z,24.79
2018-08-28T11:52:04.567Z,24.80
2018-08-28T11:53:04.498Z,24.86
2018-08-28T11:54:04.440Z,24.89
2018-08-28T11:55:04.443Z,24.89
2018-08-28T11:56:04.251Z,24.24
2018-08-28T11:57:04.294Z,23.99
2018-08-28T11:58:04.134Z,24.21
2018-08-28T11:59:04.171Z,24.55
2018-08-28T12:00:03.998Z,24.66
2018-08-28T12:01:03.960Z,24.37
2018-08-28T12:02:03.880Z,24.26
2018-08-28T12:03:03.938Z,24.56
2018-08-28T12:04:03.678Z,24.33
2018-08-28T12:05:03.762Z,24.82
2018-08-28T12:06:03.532Z,25.27
2018-08-28T12:07:03.637Z,26.13
2018-08-28T12:08:03.429Z,26.47
2018-08-28T12:09:03.438Z,26.13
2018-08-28T12:10:03.255Z,26.75
2018-08-28T12:11:03.201Z,26.51
2018-08-28T12:12:03.093Z,25.98
2018-08-28T12:13:03.187Z,25.64
2018-08-28T12:14:02.974Z,25.57
2018-08-28T12:15:02.944Z,24.99
2018-08-28T12:16:02.798Z,25.08
2018-08-28T12:17:02.836Z,24.93
2018-08-28T12:18:02.725Z,24.82
2018-08-28T12:19:02.660Z,24.87
2018-08-28T12:20:02.517Z,24.71
2018-08-28T12:21:02.660Z,24.49
2018-08-28T12:22:02.376Z,24.56
2018-08-28T12:23:02.384Z,24.83
2018-08-28T12:24:02.205Z,25.30
2018-08-28T12:25:02.170Z,25.48
2018-08-28T12:26:02.084Z,25.57
2018-08-28T12:27:02.130Z,25.57
2018-08-28T12:28:01.914Z,25.74
2018-08-28T12:29:02.041Z,25.82
2018-08-28T12:30:01.782Z,25.63
2018-08-28T12:31:01.845Z,25.38
2018-08-28T12:32:01.620Z,25.07
2018-08-28T12:33:01.626Z,24.70
2018-08-28T12:34:01.469Z,24.86
2018-08-28T12:35:01.462Z,24.56
2018-08-28T12:36:01.333Z,24.84
2018-08-28T12:37:01.365Z,24.94
2018-08-28T12:38:01.189Z,24.94
2018-08-28T12:39:01.144Z,25.17
2018-08-28T12:40:01.094Z,25.29
2018-08-28T12:41:01.043Z,25.38
2018-08-28T12:42:00.972Z,25.63
2018-08-28T12:43:00.857Z,25.35
2018-08-28T12:44:00.806Z,25.12
2018-08-28T12:45:00.932Z,25.26
2018-08-28T12:46:00.588Z,25.26
2018-08-28T12:47:00.601Z,24.93
2018-08-28T12:48:00.468Z,24.52
2018-08-28T12:49:00.480Z,24.52
2018-08-28T12:50:00.321Z,24.74
2018-08-28T12:51:00.298Z,24.42
2018-08-28T12:52:00.151Z,24.66
2018-08-28T12:53:00.186Z,24.67
2018-08-28T12:53:59.984Z,24.05
2018-08-28T12:55:00.086Z,24.00
2018-08-28T12:55:59.893Z,23.74
2018-08-28T12:56:59.836Z,23.90
2018-08-28T12:57:59.725Z,24.31
2018-08-28T12:58:59.757Z,24.61
2018-08-28T12:59:59.530Z,24.75
2018-08-28T13:00:59.588Z,24.83
2018-08-28T13:01:59.397Z,24.93
2018-08-28T13:02:59.369Z,24.94
2018-08-28T13:03:59.291Z,24.84
2018-08-28T13:04:59.266Z,24.83
2018-08-28T13:05:59.095Z,24.82
2018-08-28T13:06:59.104Z,24.71
2018-08-28T13:07:59.036Z,24.42
2018-08-28T13:08:58.990Z,24.64
2018-08-28T13:09:58.783Z,24.79
2018-08-28T13:10:58.897Z,24.84
2018-08-28T13:11:58.652Z,24.30
2018-08-28T13:12:58.604Z,24.36
2018-08-28T13:13:58.641Z,23.69
2018-08-28T13:14:58.511Z,23.60
2018-08-28T13:15:58.352Z,23.57
2018-08-28T13:16:58.323Z,23.72
2018-08-28T13:17:58.216Z,23.93
2018-08-28T13:18:58.158Z,24.24
2018-08-28T13:19:58.026Z,24.11
2018-08-28T13:20:58.156Z,23.99
2018-08-28T13:21:57.913Z,24.16
2018-08-28T13:22:57.850Z,24.33
2018-08-28T13:23:57.771Z,24.44
2018-08-28T13:24:57.784Z,24.68
2018-08-28T13:25:57.773Z,24.59
2018-08-28T13:26:57.561Z,24.08
2018-08-28T13:27:57.439Z,24.24
2018-08-28T13:28:57.390Z,24.51
2018-08-28T13:29:57.444Z,24.77
2018-08-28T13:30:57.282Z,24.75
2018-08-28T13:31:57.115Z,24.68
2018-08-28T13:32:57.154Z,24.79
2018-08-28T13:33:56.961Z,25.12
2018-08-28T13:34:56.973Z,25.11
2018-08-28T13:35:56.821Z,24.99
2018-08-28T13:36:56.816Z,24.94
2018-08-28T13:37:56.669Z,24.97
2018-08-28T13:38:56.627Z,25.16
2018-08-28T13:39:56.566Z,24.94
2018-08-28T13:40:56.531Z,24.82
2018-08-28T13:41:56.392Z,24.16
2018-08-28T13:42:56.348Z,23.99
2018-08-28T13:43:56.234Z,23.96
2018-08-28T13:44:56.261Z,24.18
2018-08-28T13:45:56.261Z,24.39
2018-08-28T13:46:56.074Z,24.42
2018-08-28T13:47:55.928Z,24.48
2018-08-28T13:48:55.871Z,24.06
2018-08-28T13:49:55.763Z,24.06
2018-08-28T13:50:55.818Z,24.11
2018-08-28T13:51:55.962Z,23.92
2018-08-28T13:52:55.701Z,23.62
2018-08-28T13:53:55.657Z,23.90
2018-08-28T13:54:55.408Z,24.11
2018-08-28T13:55:55.367Z,24.19
2018-08-28T13:56:55.315Z,24.42
2018-08-28T13:57:55.155Z,24.61
2018-08-28T13:58:55.237Z,24.55
2018-08-28T13:59:55.135Z,24.61
2018-08-28T14:00:55.000Z,24.60
2018-08-28T14:01:54.996Z,24.55
2018-08-28T14:02:54.840Z,24.37
2018-08-28T14:03:54.711Z,24.29
2018-08-28T14:04:54.762Z,24.27
2018-08-28T14:05:54.557Z,24.23